Time,TemperatureF,DewpointF,PressureIn,WindDirection,WindDirectionDegrees,WindSpeedMPH,WindSpeedGustMPH,Humidity,HourlyPrecipIn,Conditions,Clouds,dailyrainin,SoftwareType,DateUTC
2013-07-02 00:00:00,72.7,71.5,0.00,SSW,210,2.0,5.0,96,0.00,,,0.00,Weather View 32 v70,2013-07-02 04:00:00,
2013-07-02 00:15:00,72.7,71.5,0.00,South,172,0.0,5.0,96,0.00,,,0.00,Weather View 32 v70,2013-07-02 04:15:00,
2013-07-02 00:30:00,72.7,71.5,0.00,SE,126,0.0,5.0,96,0.00,,,0.00,Weather View 32 v70,2013-07-02 04:30:00,
2013-07-02 00:45:00,72.7,71.5,0.00,South,173,0.0,5.0,96,0.00,,,0.00,Weather View 32 v70,2013-07-02 04:45:00,
2013-07-02 01:00:00,72.7,71.5,0.00,East,100,0.0,5.0,96,0.00,,,0.00,Weather View 32 v70,2013-07-02 05:00:00,
2013-07-02 01:15:00,72.7,71.5,0.00,SW,232,0.0,5.0,96,0.00,,,0.00,Weather View 32 v70,2013-07-02 05:15:00,
2013-07-02 01:30:00,72.7,71.5,0.00,ESE,123,0.0,5.0,96,0.00,,,0.00,Weather View 32 v70,2013-07-02 05:30:00,
2013-07-02 01:45:00,72.7,71.5,0.00,East,98,0.0,5.0,96,0.00,,,0.00,Weather View 32 v70,2013-07-02 05:45:00,
2013-07-02 02:00:00,72.5,71.3,0.00,SSE,168,0.0,4.0,96,0.00,,,0.00,Weather View 32 v70,2013-07-02 06:00:00,
2013-07-02 02:15:00,72.5,71.3,0.00,South,183,0.0,4.0,96,0.00,,,0.00,Weather View 32 v70,2013-07-02 06:15:00,
2013-07-02 02:30:00,72.5,71.6,0.00,East,84,0.0,4.0,97,0.00,,,0.00,Weather View 32 v70,2013-07-02 06:30:00,
2013-07-02 02:45:00,72.5,71.6,0.00,SW,230,0.0,4.0,97,0.00,,,0.00,Weather View 32 v70,2013-07-02 06:45:00,
2013-07-02 03:00:00,72.3,71.4,0.00,SSW,199,0.0,4.0,97,0.00,,,0.00,Weather View 32 v70,2013-07-02 07:00:00,
2013-07-02 03:15:00,72.3,71.1,0.00,SSW,198,0.0,4.0,96,0.00,,,0.00,Weather View 32 v70,2013-07-02 07:15:00,
2013-07-02 03:30:00,72.3,71.1,0.00,ENE,68,0.0,4.0,96,0.00,,,0.00,Weather View 32 v70,2013-07-02 07:30:00,
2013-07-02 03:45:00,72.3,71.1,0.00,South,189,2.0,5.0,96,0.00,,,0.00,Weather View 32 v70,2013-07-02 07:45:00,
2013-07-02 04:00:00,72.3,70.8,0.00,SSW,193,0.0,5.0,95,0.00,,,0.00,Weather View 32 v70,2013-07-02 08:00:00,
2013-07-02 04:15:00,72.3,70.8,0.00,WNW,283,4.0,5.0,95,0.00,,,0.00,Weather View 32 v70,2013-07-02 08:15:00,
2013-07-02 04:30:00,72.3,71.1,0.00,SSW,195,0.0,5.0,96,0.00,,,0.00,Weather View 32 v70,2013-07-02 08:30:00,
2013-07-02 04:45:00,72.1,70.9,0.00,SSW,213,0.0,4.0,96,0.00,,,0.00,Weather View 32 v70,2013-07-02 08:45:00,
2013-07-02 04:50:00,72.1,70.9,0.00,SSW,213,0.0,4.0,96,0.00,,,0.00,Weather View 32 v70,2013-07-02 08:50:00,
2013-07-02 05:00:00,72.1,70.9,0.00,South,189,2.0,4.0,96,0.00,,,0.00,Weather View 32 v70,2013-07-02 09:00:00,
2013-07-02 05:15:00,72.3,71.4,0.00,SSW,195,0.0,4.0,97,0.00,,,0.00,Weather View 32 v70,2013-07-02 09:15:00,
2013-07-02 05:30:00,72.1,71.5,0.00,East,81,0.0,5.0,98,0.00,,,0.00,Weather View 32 v70,2013-07-02 09:30:00,
2013-07-02 05:45:00,72.1,71.5,0.00,SSW,198,0.0,5.0,98,0.00,,,0.00,Weather View 32 v70,2013-07-02 09:45:00,
2013-07-02 05:51:00,72.1,71.5,0.00,SSW,198,0.0,5.0,98,0.00,,,0.00,Weather View 32 v70,2013-07-02 09:51:00,
2013-07-02 06:00:00,72.1,71.5,0.00,SSE,165,0.0,8.0,98,0.00,,,0.00,Weather View 32 v70,2013-07-02 10:00:00,
2013-07-02 06:15:00,72.3,71.7,0.00,South,174,0.0,8.0,98,0.00,,,0.00,Weather View 32 v70,2013-07-02 10:15:00,
2013-07-02 06:30:00,72.3,71.7,0.00,SSW,197,0.0,8.0,98,0.00,,,0.00,Weather View 32 v70,2013-07-02 10:30:00,
2013-07-02 06:45:00,72.5,71.9,0.00,SW,224,0.0,8.0,98,0.00,,,0.00,Weather View 32 v70,2013-07-02 10:45:00,
2013-07-02 06:51:00,72.5,71.9,0.00,SW,224,0.0,8.0,98,0.00,,,0.00,Weather View 32 v70,2013-07-02 10:51:00,
2013-07-02 07:00:00,72.7,72.1,0.00,SW,224,3.0,8.0,98,0.00,,,0.00,Weather View 32 v70,2013-07-02 11:00:00,
2013-07-02 07:15:00,73.0,72.4,0.00,South,170,0.0,6.0,98,0.00,,,0.00,Weather View 32 v70,2013-07-02 11:15:00,
2013-07-02 07:30:00,73.0,72.1,0.00,South,183,2.0,6.0,97,0.00,,,0.00,Weather View 32 v70,2013-07-02 11:30:00,
2013-07-02 07:45:00,73.6,71.7,0.00,North,11,0.0,6.0,94,0.00,,,0.00,Weather View 32 v70,2013-07-02 11:45:00,
2013-07-02 07:52:00,73.6,71.7,0.00,North,11,0.0,6.0,94,0.00,,,0.00,Weather View 32 v70,2013-07-02 11:52:00,
2013-07-02 08:00:00,73.9,71.1,0.00,SSE,160,0.0,6.0,91,0.00,,,0.00,Weather View 32 v70,2013-07-02 12:00:00,
2013-07-02 08:15:00,73.9,71.1,0.00,East,92,0.0,5.0,91,0.00,,,0.00,Weather View 32 v70,2013-07-02 12:15:00,
2013-07-02 08:30:00,73.9,70.5,0.00,SSW,210,0.0,5.0,89,0.00,,,0.00,Weather View 32 v70,2013-07-02 12:30:00,
2013-07-02 08:45:00,74.1,71.0,0.00,SE,124,0.0,4.0,90,0.00,,,0.00,Weather View 32 v70,2013-07-02 12:45:00,
2013-07-02 08:52:00,74.1,71.0,0.00,SE,124,0.0,4.0,90,0.00,,,0.00,Weather View 32 v70,2013-07-02 12:52:00,
2013-07-02 09:00:00,74.5,71.3,0.00,SSW,204,2.0,5.0,90,0.00,,,0.00,Weather View 32 v70,2013-07-02 13:00:00,
2013-07-02 09:15:00,73.9,70.1,0.00,South,177,3.0,5.0,88,0.00,,,0.00,Weather View 32 v70,2013-07-02 13:15:00,
2013-07-02 09:30:00,74.1,70.7,0.00,SSW,213,0.0,5.0,89,0.00,,,0.00,Weather View 32 v70,2013-07-02 13:30:00,
2013-07-02 09:45:00,74.1,70.3,0.00,South,174,0.0,6.0,88,0.00,,,0.00,Weather View 32 v70,2013-07-02 13:45:00,
2013-07-02 09:53:00,74.1,70.3,0.00,South,174,0.0,6.0,88,0.00,,,0.00,Weather View 32 v70,2013-07-02 13:53:00,
2013-07-02 10:00:00,74.7,70.9,0.00,WSW,241,0.0,6.0,88,0.00,,,0.00,Weather View 32 v70,2013-07-02 14:00:00,
2013-07-02 10:15:00,75.6,69.7,0.00,SSW,204,0.0,6.0,82,0.00,,,0.00,Weather View 32 v70,2013-07-02 14:15:00,
2013-07-02 10:30:00,75.9,70.0,0.00,SW,235,0.0,6.0,82,0.00,,,0.00,Weather View 32 v70,2013-07-02 14:30:00,
2013-07-02 10:45:00,76.1,69.8,0.00,West,269,0.0,5.0,81,0.00,,,0.00,Weather View 32 v70,2013-07-02 14:45:00,
2013-07-02 10:53:00,76.1,69.8,0.00,West,269,0.0,5.0,81,0.00,,,0.00,Weather View 32 v70,2013-07-02 14:53:00,
2013-07-02 11:00:00,77.4,68.8,0.00,West,275,0.0,5.0,75,0.00,,,0.00,Weather View 32 v70,2013-07-02 15:00:00,
2013-07-02 11:15:00,77.9,68.9,0.00,SSE,149,0.0,5.0,74,0.00,,,0.00,Weather View 32 v70,2013-07-02 15:15:00,
2013-07-02 11:30:00,79.0,68.3,0.00,SW,216,0.0,5.0,70,0.00,,,0.00,Weather View 32 v70,2013-07-02 15:30:00,
2013-07-02 11:45:00,79.3,67.4,0.00,South,187,3.0,5.0,67,0.00,,,0.00,Weather View 32 v70,2013-07-02 15:45:00,
2013-07-02 11:54:00,79.3,67.4,0.00,South,187,3.0,5.0,67,0.00,,,0.00,Weather View 32 v70,2013-07-02 15:54:00,
2013-07-02 12:00:00,79.0,67.0,0.00,SW,233,3.0,5.0,67,0.00,,,0.00,Weather View 32 v70,2013-07-02 16:00:00,
2013-07-02 12:15:00,78.1,68.3,0.00,West,274,0.0,5.0,72,0.00,,,0.00,Weather View 32 v70,2013-07-02 16:15:00,
2013-07-02 12:30:00,78.1,68.3,0.00,WSW,257,0.0,5.0,72,0.00,,,0.00,Weather View 32 v70,2013-07-02 16:30:00,
2013-07-02 12:45:00,78.4,68.6,0.00,SW,230,3.0,5.0,72,0.00,,,0.00,Weather View 32 v70,2013-07-02 16:45:00,
2013-07-02 12:54:00,78.4,68.6,0.00,SW,230,3.0,5.0,72,0.00,,,0.00,Weather View 32 v70,2013-07-02 16:54:00,
2013-07-02 13:00:00,78.6,68.4,0.00,WNW,297,0.0,5.0,71,0.00,,,0.00,Weather View 32 v70,2013-07-02 17:00:00,
2013-07-02 13:15:00,78.4,69.4,0.00,SW,234,0.0,5.0,74,0.00,,,0.00,Weather View 32 v70,2013-07-02 17:15:00,
2013-07-02 13:30:00,78.8,69.8,0.00,WSW,256,3.0,4.0,74,0.00,,,0.00,Weather View 32 v70,2013-07-02 17:30:00,
2013-07-02 13:45:00,78.4,68.6,0.00,SW,236,0.0,5.0,72,0.00,,,0.00,Weather View 32 v70,2013-07-02 17:45:00,
2013-07-02 14:00:00,79.2,68.9,0.00,SSE,153,4.0,5.0,71,0.00,,,0.00,Weather View 32 v70,2013-07-02 18:00:00,
2013-07-02 14:15:00,80.8,67.0,0.00,SSW,212,3.0,5.0,63,0.00,,,0.00,Weather View 32 v70,2013-07-02 18:15:00,
2013-07-02 14:30:00,80.8,67.0,0.00,SE,129,3.0,6.0,63,0.00,,,0.00,Weather View 32 v70,2013-07-02 18:30:00,
2013-07-02 14:45:00,81.5,66.7,0.00,WSW,242,0.0,6.0,61,0.00,,,0.00,Weather View 32 v70,2013-07-02 18:45:00,
2013-07-02 15:00:00,81.0,67.1,0.00,NNW,345,2.0,6.0,63,0.00,,,0.00,Weather View 32 v70,2013-07-02 19:00:00,
2013-07-02 15:15:00,80.4,68.4,0.00,SE,140,0.0,6.0,67,0.00,,,0.00,Weather View 32 v70,2013-07-02 19:15:00,
2013-07-02 15:30:00,79.9,68.3,0.00,WSW,252,0.0,6.0,68,0.00,,,0.00,Weather View 32 v70,2013-07-02 19:30:00,
2013-07-02 15:45:00,78.4,71.0,0.00,SW,233,0.0,5.0,78,0.08,,,0.08,Weather View 32 v70,2013-07-02 19:45:00,
2013-07-02 16:00:00,77.5,73.3,0.00,WNW,301,3.0,5.0,87,0.12,,,0.12,Weather View 32 v70,2013-07-02 20:00:00,
2013-07-02 16:15:00,77.2,73.0,0.00,NNE,15,0.0,4.0,87,0.12,,,0.12,Weather View 32 v70,2013-07-02 20:15:00,
2013-07-02 16:30:00,77.0,73.5,0.00,NNE,28,0.0,4.0,89,0.24,,,0.24,Weather View 32 v70,2013-07-02 20:30:00,
2013-07-02 16:45:00,77.4,73.2,0.00,NW,306,0.0,4.0,87,0.16,,,0.24,Weather View 32 v70,2013-07-02 20:45:00,
2013-07-02 17:00:00,78.3,74.4,0.00,NW,306,0.0,4.0,88,0.12,,,0.24,Weather View 32 v70,2013-07-02 21:00:00,
2013-07-02 17:15:00,80.1,71.8,0.00,WNW,299,0.0,4.0,76,0.12,,,0.24,Weather View 32 v70,2013-07-02 21:15:00,
2013-07-02 17:30:00,81.7,74.1,0.00,West,273,0.0,4.0,78,0.00,,,0.24,Weather View 32 v70,2013-07-02 21:30:00,
2013-07-02 17:45:00,82.0,72.5,0.00,NNE,31,0.0,4.0,73,0.00,,,0.24,Weather View 32 v70,2013-07-02 21:45:00,
2013-07-02 18:00:00,80.4,70.5,0.00,SSE,152,0.0,4.0,72,0.00,,,0.24,Weather View 32 v70,2013-07-02 22:00:00,
2013-07-02 18:15:00,79.2,70.9,0.00,SW,222,0.0,4.0,76,0.00,,,0.24,Weather View 32 v70,2013-07-02 22:15:00,
2013-07-02 18:30:00,78.6,71.2,0.00,South,182,0.0,4.0,78,0.00,,,0.24,Weather View 32 v70,2013-07-02 22:30:00,
2013-07-02 18:45:00,78.3,70.4,0.00,East,100,0.0,4.0,77,0.00,,,0.24,Weather View 32 v70,2013-07-02 22:45:00,
2013-07-02 19:00:00,77.7,70.3,0.00,SSE,168,0.0,4.0,78,0.00,,,0.24,Weather View 32 v70,2013-07-02 23:00:00,
2013-07-02 19:15:00,77.5,70.1,0.00,West,264,0.0,4.0,78,0.00,,,0.24,Weather View 32 v70,2013-07-02 23:15:00,
2013-07-02 19:30:00,77.2,69.8,0.00,SW,214,0.0,4.0,78,0.00,,,0.24,Weather View 32 v70,2013-07-02 23:30:00,
2013-07-02 19:45:00,77.0,68.8,0.00,SW,220,0.0,3.0,76,0.00,,,0.24,Weather View 32 v70,2013-07-02 23:45:00,
2013-07-02 20:00:00,77.0,69.2,0.00,South,177,0.0,4.0,77,0.00,,,0.24,Weather View 32 v70,2013-07-03 00:00:00,
2013-07-02 20:15:00,76.8,69.8,0.00,South,177,0.0,4.0,79,0.00,,,0.24,Weather View 32 v70,2013-07-03 00:15:00,
2013-07-02 20:30:00,76.6,70.3,0.00,SW,228,0.0,4.0,81,0.00,,,0.24,Weather View 32 v70,2013-07-03 00:30:00,
2013-07-02 20:45:00,76.6,69.6,0.00,SSE,155,0.0,4.0,79,0.00,,,0.24,Weather View 32 v70,2013-07-03 00:45:00,
2013-07-02 21:00:00,76.6,69.6,0.00,WSW,257,0.0,6.0,79,0.00,,,0.24,Weather View 32 v70,2013-07-03 01:00:00,
2013-07-02 21:15:00,76.5,69.8,0.00,WSW,252,3.0,6.0,80,0.00,,,0.24,Weather View 32 v70,2013-07-03 01:15:00,
2013-07-02 21:30:00,76.3,68.5,0.00,SW,224,3.0,6.0,77,0.00,,,0.24,Weather View 32 v70,2013-07-03 01:30:00,
2013-07-02 21:45:00,76.1,68.0,0.00,SW,217,0.0,6.0,76,0.00,,,0.24,Weather View 32 v70,2013-07-03 01:45:00,
2013-07-02 22:15:00,75.4,67.6,0.00,WNW,282,4.0,5.0,77,0.00,,,0.24,Weather View 32 v70,2013-07-03 02:15:00,
2013-07-02 22:30:00,75.2,67.8,0.00,West,259,2.0,5.0,78,0.00,,,0.24,Weather View 32 v70,2013-07-03 02:30:00,
2013-07-02 23:00:00,74.7,67.3,0.00,SSW,208,0.0,4.0,78,0.00,,,0.24,Weather View 32 v70,2013-07-03 03:00:00,
2013-07-02 23:15:00,74.5,66.8,0.00,SW,217,0.0,4.0,77,0.00,,,0.24,Weather View 32 v70,2013-07-03 03:15:00,
2013-07-02 23:30:00,74.3,66.6,0.00,SSE,149,0.0,5.0,77,0.00,,,0.24,Weather View 32 v70,2013-07-03 03:30:00,
2013-07-02 23:45:00,74.3,66.6,0.00,SSW,202,0.0,5.0,77,0.00,,,0.24,Weather View 32 v70,2013-07-03 03:45:00,